createdAt,value
2022-12-06T00:00:38.462Z,0.5
2022-12-06T00:01:48.150Z,0.6
2022-12-06T00:02:57.826Z,0.7
2022-12-06T00:04:06.432Z,0.8
2022-12-06T00:05:16.090Z,1
2022-12-06T00:06:24.741Z,0.7
2022-12-06T00:07:32.469Z,0.6
2022-12-06T00:08:42.062Z,1
2022-12-06T00:09:50.726Z,0.7
2022-12-06T00:11:00.389Z,0.8
2022-12-06T00:12:10.091Z,0.8
2022-12-06T00:13:18.755Z,0.9
2022-12-06T00:14:28.441Z,0.7
2022-12-06T00:15:37.086Z,1.1
2022-12-06T00:16:44.794Z,0.9
2022-12-06T00:17:54.429Z,0.9
2022-12-06T00:19:02.075Z,0.9
2022-12-06T00:20:10.776Z,0.7
2022-12-06T00:21:20.525Z,0.7
2022-12-06T00:22:28.188Z,0.8
2022-12-06T00:23:37.873Z,0.8
2022-12-06T00:24:46.514Z,1
2022-12-06T00:25:55.189Z,0.8
2022-12-06T00:27:04.871Z,0.8
2022-12-06T00:28:14.538Z,0.7
2022-12-06T00:29:23.215Z,0.6
2022-12-06T00:30:32.858Z,1
2022-12-06T00:31:41.551Z,0.6
2022-12-06T00:32:51.187Z,0.9
2022-12-06T00:33:59.838Z,0.7
2022-12-06T00:35:07.499Z,1.2
2022-12-06T00:36:17.187Z,1.2
2022-12-06T00:37:25.848Z,0.7
2022-12-06T00:38:34.520Z,0.7
2022-12-06T00:39:44.212Z,0.8
2022-12-06T00:40:52.843Z,0.8
2022-12-06T00:42:02.502Z,0.8
2022-12-06T00:43:11.187Z,0.6
2022-12-06T00:44:18.841Z,1.1
2022-12-06T00:45:28.553Z,1.2
2022-12-06T00:46:37.176Z,1
2022-12-06T00:47:46.834Z,0.9
2022-12-06T00:48:56.515Z,0.7
2022-12-06T00:50:04.187Z,0.8
2022-12-06T00:51:13.840Z,1.1
2022-12-06T00:52:22.485Z,1
2022-12-06T00:53:31.143Z,0.7
2022-12-06T00:54:40.827Z,0.8
2022-12-06T00:55:49.508Z,1.1
2022-12-06T00:56:58.146Z,1.1
2022-12-06T00:58:07.811Z,1.9
2022-12-06T00:59:16.534Z,2
2022-12-06T01:00:26.213Z,2.1
2022-12-06T01:01:34.928Z,2.5
2022-12-06T01:02:42.593Z,1.9
2022-12-06T01:03:52.347Z,2
2022-12-06T01:04:59.839Z,2.1
2022-12-06T01:06:09.537Z,1.8
2022-12-06T01:07:19.194Z,1.9
2022-12-06T01:08:27.864Z,2.6
2022-12-06T01:09:37.535Z,2.1
2022-12-06T01:10:46.218Z,1.5
2022-12-06T01:11:53.920Z,1.6
2022-12-06T01:13:03.573Z,1.5
2022-12-06T01:14:12.217Z,1.1
2022-12-06T01:15:21.888Z,1.2
2022-12-06T01:16:31.567Z,1.1
2022-12-06T01:17:41.348Z,1.3
2022-12-06T01:18:51.008Z,1.2
2022-12-06T01:19:58.936Z,1.1
2022-12-06T01:21:07.489Z,1.2
2022-12-06T01:22:17.178Z,1
2022-12-06T01:23:24.881Z,1.1
2022-12-06T01:24:33.551Z,0.9
2022-12-06T01:25:43.213Z,0.9
2022-12-06T01:26:50.874Z,1.1
2022-12-06T01:28:00.565Z,1
2022-12-06T01:29:09.222Z,1
2022-12-06T01:30:16.878Z,1
2022-12-06T01:31:28.557Z,1.3
2022-12-06T01:32:35.196Z,0.7
2022-12-06T01:33:44.865Z,1.4
2022-12-06T01:34:54.552Z,1
2022-12-06T01:36:03.219Z,1.4
2022-12-06T01:37:12.877Z,1.2
2022-12-06T01:38:22.544Z,1.2
2022-12-06T01:39:30.194Z,0.9
2022-12-06T01:40:39.881Z,0.8
2022-12-06T01:41:49.541Z,1.1
2022-12-06T01:42:57.193Z,1.2
2022-12-06T01:44:06.865Z,1.1
2022-12-06T01:45:15.515Z,1.4
2022-12-06T01:46:25.267Z,1.2
2022-12-06T01:47:33.860Z,0.9
2022-12-06T01:48:41.522Z,1.1
2022-12-06T01:49:51.188Z,1.2
2022-12-06T01:50:58.870Z,1.1
2022-12-06T01:52:07.540Z,1.2
2022-12-06T01:53:19.300Z,1.1
2022-12-06T01:54:26.841Z,0.9
2022-12-06T01:55:37.478Z,1.1
2022-12-06T01:56:46.148Z,1.1
2022-12-06T01:57:55.807Z,1.1
2022-12-06T01:59:04.460Z,1.2
2022-12-06T02:00:12.127Z,1.7
2022-12-06T02:01:21.835Z,1.7
2022-12-06T02:02:30.509Z,1.4
2022-12-06T02:03:40.110Z,2
2022-12-06T02:04:49.774Z,1.7
2022-12-06T02:05:57.440Z,2
2022-12-06T02:07:07.098Z,2
2022-12-06T02:08:16.821Z,1.9
2022-12-06T02:09:25.441Z,2.1
2022-12-06T02:10:35.144Z,2.3
2022-12-06T02:11:43.784Z,2
2022-12-06T02:12:52.441Z,1.8
2022-12-06T02:14:02.102Z,1.9
2022-12-06T02:15:10.791Z,1.9
2022-12-06T02:16:20.521Z,2.3
2022-12-06T02:17:29.080Z,2
2022-12-06T02:18:37.753Z,2.1
2022-12-06T02:19:47.423Z,2
2022-12-06T02:20:56.099Z,1.8
2022-12-06T02:22:05.792Z,2.4
2022-12-06T02:23:15.438Z,2.3
2022-12-06T02:24:24.110Z,2.1
2022-12-06T02:25:34.269Z,1.9
2022-12-06T02:26:42.476Z,2.4
2022-12-06T02:27:51.145Z,1.8
2022-12-06T02:29:00.825Z,2
2022-12-06T02:30:09.483Z,2.5
2022-12-06T02:31:18.201Z,2.8
2022-12-06T02:32:27.836Z,2.2
2022-12-06T02:33:37.490Z,2
2022-12-06T02:34:47.147Z,1.9
2022-12-06T02:35:56.826Z,2.2
2022-12-06T02:37:05.481Z,2
2022-12-06T02:38:15.143Z,1.6
2022-12-06T02:39:23.820Z,2.4
2022-12-06T02:40:32.486Z,2
2022-12-06T02:41:42.146Z,2.5
2022-12-06T02:42:49.813Z,2.1
2022-12-06T02:43:59.494Z,3.3
2022-12-06T02:45:08.157Z,3.1
2022-12-06T02:46:15.884Z,4.3
2022-12-06T02:47:25.490Z,5.2
2022-12-06T02:48:34.209Z,5.5
2022-12-06T02:49:43.883Z,6.6
2022-12-06T02:50:53.549Z,7.7
2022-12-06T02:52:02.218Z,7.5
2022-12-06T02:53:11.899Z,8.6
2022-12-06T02:54:20.577Z,8.3
2022-12-06T02:55:28.249Z,7.7
2022-12-06T02:56:37.927Z,8
2022-12-06T02:57:45.587Z,7.3
2022-12-06T02:58:55.237Z,7.3
2022-12-06T03:00:04.911Z,7.7
2022-12-06T03:01:12.606Z,6.9
2022-12-06T03:02:22.302Z,6.1
2022-12-06T03:03:31.881Z,5.9
2022-12-06T03:04:40.579Z,6.2
2022-12-06T03:05:50.217Z,4.8
2022-12-06T03:06:58.884Z,4.6
2022-12-06T03:08:07.624Z,4.5
2022-12-06T03:09:17.186Z,4.4
2022-12-06T03:10:25.840Z,4.1
2022-12-06T03:11:35.502Z,4
2022-12-06T03:12:45.161Z,4.5
2022-12-06T03:13:53.819Z,4.4
2022-12-06T03:15:03.487Z,5.3
2022-12-06T03:16:12.201Z,4.3
2022-12-06T03:17:21.808Z,3
2022-12-06T03:18:30.476Z,2.7
2022-12-06T03:19:39.139Z,2.2
2022-12-06T03:20:48.822Z,2.2
2022-12-06T03:21:57.452Z,2.6
2022-12-06T03:23:05.108Z,2.6
2022-12-06T03:24:14.789Z,2.4
2022-12-06T03:25:22.446Z,2.8
2022-12-06T03:26:32.105Z,2.5
2022-12-06T03:27:41.771Z,2.6
2022-12-06T03:28:49.418Z,2.7
2022-12-06T03:29:59.365Z,2.9
2022-12-06T03:31:08.829Z,1.7
2022-12-06T03:32:17.439Z,1.8
2022-12-06T03:33:27.095Z,2.2
2022-12-06T03:34:35.750Z,1.7
2022-12-06T03:35:44.427Z,1.7
2022-12-06T03:36:54.115Z,1.9
2022-12-06T03:38:02.731Z,2.7
2022-12-06T03:39:12.401Z,2.4
2022-12-06T03:40:21.054Z,2.6
2022-12-06T03:41:29.728Z,2.3
2022-12-06T03:42:38.405Z,3
2022-12-06T03:43:48.070Z,2.9
2022-12-06T03:44:56.725Z,2.2
2022-12-06T03:46:06.546Z,2.8
2022-12-06T03:47:16.245Z,3.2
2022-12-06T03:48:25.692Z,3.1
2022-12-06T03:49:34.416Z,2.8
2022-12-06T03:50:42.083Z,2.8
2022-12-06T03:51:51.779Z,3
2022-12-06T03:53:00.504Z,2.8
2022-12-06T03:54:10.132Z,2.5
2022-12-06T03:55:18.783Z,2.9
2022-12-06T03:56:27.436Z,2.2
2022-12-06T03:57:37.106Z,2.7
2022-12-06T03:58:45.784Z,2.5
2022-12-06T03:59:55.427Z,2.5
2022-12-06T04:01:05.080Z,2.6
2022-12-06T04:02:12.746Z,2.5
2022-12-06T04:03:22.446Z,3.3
2022-12-06T04:04:30.070Z,3.1
2022-12-06T04:05:38.730Z,3.1
2022-12-06T04:06:48.376Z,3
2022-12-06T04:07:57.082Z,2.4
2022-12-06T04:09:06.710Z,2.7
2022-12-06T04:10:16.379Z,2.3
2022-12-06T04:11:24.040Z,2.4
2022-12-06T04:12:33.718Z,2.3
2022-12-06T04:13:41.385Z,2.3
2022-12-06T04:14:50.043Z,2.6
2022-12-06T04:15:58.762Z,2.4
2022-12-06T04:17:08.376Z,2.7
2022-12-06T04:18:17.042Z,2.7
2022-12-06T04:19:26.720Z,2.8
2022-12-06T04:20:36.383Z,2.4
2022-12-06T04:21:45.048Z,2.7
2022-12-06T04:22:53.704Z,2.6
2022-12-06T04:24:03.370Z,2.3
2022-12-06T04:25:13.072Z,2.7
2022-12-06T04:26:21.710Z,2.3
2022-12-06T04:27:31.371Z,2.3
2022-12-06T04:28:40.031Z,3.1
2022-12-06T04:29:49.690Z,2.1
2022-12-06T04:30:58.382Z,2.3
2022-12-06T04:32:07.015Z,2.1
2022-12-06T04:33:16.738Z,2.5
2022-12-06T04:34:26.501Z,2.2
2022-12-06T04:35:36.188Z,2.1
2022-12-06T04:36:45.910Z,1.9
2022-12-06T04:37:54.589Z,1.5
2022-12-06T04:39:04.281Z,1.9
2022-12-06T04:40:12.929Z,2.2
2022-12-06T04:41:21.699Z,1.7
2022-12-06T04:42:31.323Z,1.6
2022-12-06T04:43:39.987Z,1.6
2022-12-06T04:44:48.689Z,1.5
2022-12-06T04:45:58.379Z,1.9
2022-12-06T04:47:06.099Z,2.1
2022-12-06T04:48:15.685Z,1.6
2022-12-06T04:49:24.350Z,1.7
2022-12-06T04:50:33.011Z,1.5
2022-12-06T04:51:42.676Z,1.4
2022-12-06T04:52:51.366Z,1.9
2022-12-06T04:54:00.041Z,1.4
2022-12-06T04:55:08.673Z,1.3
2022-12-06T04:56:16.343Z,1.2
2022-12-06T04:57:26.029Z,1.3
2022-12-06T04:58:34.652Z,1.3
2022-12-06T04:59:42.312Z,1.4
2022-12-06T05:00:52.026Z,1.4
2022-12-06T05:01:59.653Z,1
2022-12-06T05:03:08.306Z,1.2
2022-12-06T05:04:18.009Z,1
2022-12-06T05:05:26.620Z,1.2
2022-12-06T05:06:35.272Z,0.9
2022-12-06T05:07:45.025Z,0.8
2022-12-06T05:08:52.616Z,0.9
2022-12-06T05:10:02.656Z,0.9
2022-12-06T05:11:10.955Z,1.1
2022-12-06T05:12:19.625Z,1.1
2022-12-06T05:13:29.333Z,0.6
2022-12-06T05:14:39.000Z,1
2022-12-06T05:15:48.701Z,1.3
2022-12-06T05:16:57.462Z,1
2022-12-06T05:18:05.097Z,1.2
2022-12-06T05:19:14.799Z,1.1
2022-12-06T05:20:23.489Z,0.9
2022-12-06T05:21:32.146Z,1.1
2022-12-06T05:22:41.886Z,1.1
2022-12-06T05:23:50.546Z,1.1
2022-12-06T05:25:00.298Z,1
2022-12-06T05:26:08.960Z,1.5
2022-12-06T05:27:16.610Z,1
2022-12-06T05:28:26.292Z,1
2022-12-06T05:29:35.984Z,1.1
2022-12-06T05:30:44.684Z,0.7
2022-12-06T05:31:54.398Z,0.9
2022-12-06T05:33:02.005Z,1.2
2022-12-06T05:34:10.681Z,1
2022-12-06T05:35:19.332Z,1.1
2022-12-06T05:36:27.017Z,1.2
2022-12-06T05:37:35.680Z,1.5
2022-12-06T05:38:48.524Z,1.4
2022-12-06T05:39:55.153Z,0.9
2022-12-06T05:41:04.857Z,1
2022-12-06T05:42:22.051Z,1.3
2022-12-06T05:43:24.304Z,1.2
2022-12-06T05:44:32.966Z,0.8
2022-12-06T05:45:40.715Z,1.4
2022-12-06T05:46:50.358Z,0.9
2022-12-06T05:47:58.036Z,1.5
2022-12-06T05:49:07.694Z,1
2022-12-06T05:50:17.365Z,1.3
2022-12-06T05:51:26.036Z,1
2022-12-06T05:52:35.688Z,1.3
2022-12-06T05:53:45.399Z,1.5
2022-12-06T05:54:56.221Z,1.7
2022-12-06T05:56:05.874Z,1.1
2022-12-06T05:57:15.523Z,1.5
2022-12-06T05:58:25.188Z,1.3
2022-12-06T05:59:33.881Z,1.2
2022-12-06T06:00:43.587Z,1.4
2022-12-06T06:01:53.271Z,1.5
2022-12-06T06:03:01.958Z,2.1
2022-12-06T06:04:11.548Z,1.9
2022-12-06T06:05:21.225Z,1.4
2022-12-06T06:06:29.880Z,1.6
2022-12-06T06:07:38.557Z,1.1
2022-12-06T06:08:47.186Z,1.1
2022-12-06T06:09:54.828Z,1.5
2022-12-06T06:11:04.508Z,1.5
2022-12-06T06:12:14.148Z,1.3
2022-12-06T06:13:23.801Z,1
2022-12-06T06:14:32.506Z,1.7
2022-12-06T06:15:41.207Z,2.1
2022-12-06T06:16:50.993Z,2.2
2022-12-06T06:18:00.612Z,2
2022-12-06T06:19:09.280Z,1.6
2022-12-06T06:20:18.942Z,1.8
2022-12-06T06:21:26.619Z,1.7
2022-12-06T06:22:36.319Z,1.8
2022-12-06T06:23:44.991Z,1.8
2022-12-06T06:24:52.625Z,1.9
2022-12-06T06:26:02.288Z,1.4
2022-12-06T06:27:10.962Z,1.5
2022-12-06T06:28:20.654Z,1.9
2022-12-06T06:29:30.319Z,1.8
2022-12-06T06:30:38.974Z,1.1
2022-12-06T06:31:48.722Z,1.4
2022-12-06T06:32:58.325Z,1.4
2022-12-06T06:34:07.032Z,1.5
2022-12-06T06:35:16.700Z,1.4
2022-12-06T06:36:25.931Z,1.7
2022-12-06T06:37:35.604Z,1.7
2022-12-06T06:38:45.287Z,0.9
2022-12-06T06:39:52.979Z,1.4
2022-12-06T06:41:02.654Z,1.1
2022-12-06T06:42:11.327Z,1.1
2022-12-06T06:43:19.993Z,1.6
2022-12-06T06:44:30.652Z,1.2
2022-12-06T06:45:38.354Z,1.4
2022-12-06T06:46:47.012Z,0.9
2022-12-06T06:47:56.685Z,1.1
2022-12-06T06:49:05.360Z,1.2
2022-12-06T06:50:15.004Z,1.1
2022-12-06T06:51:24.738Z,1.4
2022-12-06T06:52:33.463Z,1.2
2022-12-06T06:53:43.143Z,1.3
2022-12-06T06:54:51.796Z,1.3
2022-12-06T06:56:01.502Z,1.7
2022-12-06T06:57:15.939Z,1.5
2022-12-06T06:58:19.831Z,1.1
2022-12-06T06:59:29.530Z,1.4
2022-12-06T07:00:39.195Z,1.5
2022-12-06T07:01:47.977Z,1.4
2022-12-06T07:02:57.602Z,1.7
2022-12-06T07:04:06.220Z,1
2022-12-06T07:05:14.914Z,1.6
2022-12-06T07:06:24.559Z,1.6
2022-12-06T07:07:33.346Z,1.4
2022-12-06T07:08:43.048Z,1.6
2022-12-06T07:09:51.700Z,1.7
2022-12-06T07:10:59.379Z,1.5
2022-12-06T07:12:09.044Z,1.7
2022-12-06T07:13:16.716Z,1.6
2022-12-06T07:14:25.408Z,1.8
2022-12-06T07:15:35.086Z,1.2
2022-12-06T07:16:43.825Z,1.3
2022-12-06T07:17:52.441Z,1.7
2022-12-06T07:19:04.706Z,2
2022-12-06T07:20:10.786Z,2.6
2022-12-06T07:21:20.630Z,1.5
2022-12-06T07:22:28.256Z,2
2022-12-06T07:23:36.919Z,1.2
2022-12-06T07:24:50.836Z,3.3
2022-12-06T07:25:55.256Z,2.3
2022-12-06T07:27:04.929Z,2.2
2022-12-06T07:28:14.615Z,1.3
2022-12-06T07:29:23.298Z,2.2
2022-12-06T07:30:33.107Z,2.4
2022-12-06T07:31:42.686Z,1.4
2022-12-06T07:32:52.400Z,1.6
2022-12-06T07:34:02.064Z,1.7
2022-12-06T07:35:10.717Z,1.8
2022-12-06T07:36:20.382Z,1.5
2022-12-06T07:37:29.143Z,1.7
2022-12-06T07:38:38.798Z,1.3
2022-12-06T07:39:48.503Z,1.4
2022-12-06T07:41:05.478Z,1.7
2022-12-06T07:42:07.793Z,1.3
2022-12-06T07:43:18.144Z,2
2022-12-06T07:44:26.934Z,1.8
2022-12-06T07:45:36.657Z,1.4
2022-12-06T07:46:46.328Z,1.6
2022-12-06T07:47:55.064Z,1.2
2022-12-06T07:49:04.781Z,1.3
2022-12-06T07:50:17.793Z,1.3
2022-12-06T07:51:25.113Z,1.4
2022-12-06T07:52:33.828Z,1.2
2022-12-06T07:53:42.565Z,1
2022-12-06T07:54:52.185Z,1.7
2022-12-06T07:56:00.851Z,1.5
2022-12-06T07:57:10.524Z,1.4
2022-12-06T07:58:19.218Z,1.6
2022-12-06T07:59:26.879Z,2.1
2022-12-06T08:00:36.556Z,1.2
2022-12-06T08:01:44.220Z,1.4
2022-12-06T08:02:52.899Z,1.3
2022-12-06T08:04:02.634Z,1.2
2022-12-06T08:05:11.219Z,1.6
2022-12-06T08:06:20.933Z,1.7
2022-12-06T08:07:29.608Z,1.6
2022-12-06T08:08:38.315Z,1.5
2022-12-06T08:09:47.976Z,1.6
2022-12-06T08:10:55.651Z,2
2022-12-06T08:12:04.343Z,1.8
2022-12-06T08:13:14.038Z,1.9
2022-12-06T08:14:21.686Z,1.5
2022-12-06T08:15:31.398Z,1.3
2022-12-06T08:16:40.012Z,1.7
2022-12-06T08:17:47.745Z,1.9
2022-12-06T08:18:57.440Z,1.2
2022-12-06T08:20:05.098Z,1.3
2022-12-06T08:21:13.758Z,1.9
2022-12-06T08:22:23.426Z,2
2022-12-06T08:23:34.481Z,2.4
2022-12-06T08:24:43.787Z,2.4
2022-12-06T08:25:53.437Z,1.4
2022-12-06T08:27:01.100Z,1.3
2022-12-06T08:28:10.765Z,1.6
2022-12-06T08:29:18.476Z,2.9
2022-12-06T08:30:27.111Z,2.8
2022-12-06T08:31:36.924Z,1.5
2022-12-06T08:32:45.481Z,1.3
2022-12-06T08:33:55.151Z,1.4
2022-12-06T08:35:03.832Z,1.5
2022-12-06T08:36:12.485Z,1.7
2022-12-06T08:37:22.214Z,1.1
2022-12-06T08:38:29.897Z,1.7
2022-12-06T08:39:38.553Z,1.9
2022-12-06T08:40:48.317Z,1.4
2022-12-06T08:41:56.958Z,2.6
2022-12-06T08:43:06.645Z,2.6
2022-12-06T08:44:15.341Z,2.3
2022-12-06T08:45:24.008Z,15.2
2022-12-06T08:46:33.742Z,1.4
2022-12-06T08:47:42.433Z,1.4
2022-12-06T08:48:51.099Z,1.8
2022-12-06T08:50:01.069Z,2.2
2022-12-06T08:51:08.422Z,1.3
2022-12-06T08:52:18.097Z,1.2
2022-12-06T08:53:26.749Z,1.4
2022-12-06T08:54:34.399Z,1.6
2022-12-06T08:55:44.074Z,1.3
2022-12-06T08:56:51.765Z,1
2022-12-06T08:58:01.452Z,1
2022-12-06T08:59:11.082Z,1.3
2022-12-06T09:00:19.751Z,5.7
2022-12-06T09:01:29.232Z,2.5
2022-12-06T09:02:36.041Z,1.6
2022-12-06T09:03:44.728Z,1.5
2022-12-06T09:04:54.500Z,1.2
2022-12-06T09:06:02.065Z,1.6
2022-12-06T09:07:12.149Z,2.2
2022-12-06T09:08:21.424Z,1.6
2022-12-06T09:09:29.047Z,1.7
2022-12-06T09:10:38.707Z,1.6
2022-12-06T09:11:47.394Z,1.4
2022-12-06T09:12:55.073Z,1.5
2022-12-06T09:14:04.712Z,1.5
2022-12-06T09:15:14.430Z,1.7
2022-12-06T09:16:23.138Z,1.8
2022-12-06T09:17:32.745Z,1.6
2022-12-06T09:18:40.391Z,1.6
2022-12-06T09:19:50.057Z,1.7
2022-12-06T09:20:58.737Z,2.1
2022-12-06T09:22:06.389Z,1.2
2022-12-06T09:23:16.059Z,1.3
2022-12-06T09:24:24.022Z,1.8
2022-12-06T09:25:33.523Z,1.4
2022-12-06T09:26:43.194Z,1.8
2022-12-06T09:27:52.850Z,2.2
2022-12-06T09:29:02.540Z,2.4
2022-12-06T09:30:12.184Z,2.6
2022-12-06T09:31:20.914Z,2.2
2022-12-06T09:32:29.511Z,2.4
2022-12-06T09:33:38.190Z,2.3
2022-12-06T09:34:46.852Z,2.1
2022-12-06T09:35:56.532Z,1.7
2022-12-06T09:37:04.211Z,1.8
2022-12-06T09:38:13.903Z,1.6
2022-12-06T09:39:23.560Z,1.6
2022-12-06T09:40:31.218Z,1.9
2022-12-06T09:41:40.876Z,1.7
2022-12-06T09:42:48.527Z,1.7
2022-12-06T09:43:57.272Z,2.7
2022-12-06T09:45:06.961Z,1.7
2022-12-06T09:46:15.660Z,1.8
2022-12-06T09:47:25.254Z,1.7
2022-12-06T09:48:32.915Z,1.3
2022-12-06T09:49:42.594Z,1.5
2022-12-06T09:50:51.271Z,1.7
2022-12-06T09:51:58.894Z,1.5
2022-12-06T09:53:08.546Z,1.8
2022-12-06T09:54:17.216Z,1.5
2022-12-06T09:55:25.894Z,1.6
2022-12-06T09:56:35.563Z,1.6
2022-12-06T09:57:43.226Z,1.9
2022-12-06T09:58:52.883Z,1.7
2022-12-06T10:00:01.753Z,1.5
2022-12-06T10:01:09.261Z,1.4
2022-12-06T10:02:18.937Z,1.5
2022-12-06T10:03:27.583Z,1.6
2022-12-06T10:04:36.209Z,1.4
2022-12-06T10:05:49.281Z,1.7
2022-12-06T10:06:54.600Z,1.8
2022-12-06T10:08:04.446Z,1.7
2022-12-06T10:09:14.042Z,1.5
2022-12-06T10:10:21.652Z,1.3
2022-12-06T10:11:31.322Z,1.7
2022-12-06T10:12:39.005Z,1.6
2022-12-06T10:13:47.657Z,1.5
2022-12-06T10:14:57.320Z,1.3
2022-12-06T10:16:06.038Z,1.2
2022-12-06T10:17:15.663Z,1.6
2022-12-06T10:18:25.319Z,1.4
2022-12-06T10:19:33.980Z,1.6
2022-12-06T10:20:43.643Z,1.8
2022-12-06T10:21:52.315Z,1.3
2022-12-06T10:23:00.962Z,1.5
2022-12-06T10:24:10.656Z,1.8
2022-12-06T10:25:19.331Z,1.5
2022-12-06T10:26:28.981Z,1.9
2022-12-06T10:27:38.637Z,1.4
2022-12-06T10:28:49.286Z,1.9
2022-12-06T10:29:59.457Z,2
2022-12-06T10:31:06.635Z,1.8
2022-12-06T10:32:15.332Z,1.5
2022-12-06T10:33:25.003Z,1.6
2022-12-06T10:34:33.641Z,1.8
2022-12-06T10:35:43.333Z,1.5
2022-12-06T10:36:51.966Z,1.9
2022-12-06T10:38:00.623Z,1.7
2022-12-06T10:39:10.285Z,1.9
2022-12-06T10:40:18.958Z,1.8
2022-12-06T10:41:27.649Z,1.5
2022-12-06T10:42:36.317Z,1.9
2022-12-06T10:43:43.972Z,1.9
2022-12-06T10:44:53.633Z,1.7
2022-12-06T10:46:08.587Z,1.8
2022-12-06T10:47:12.036Z,1.8
2022-12-06T10:48:21.679Z,1.6
2022-12-06T10:49:29.375Z,1.8
2022-12-06T10:50:37.994Z,1.8
2022-12-06T10:51:47.668Z,1.8
2022-12-06T10:53:01.604Z,1.8
2022-12-06T10:54:06.999Z,1.9
2022-12-06T10:55:15.653Z,1.6
2022-12-06T10:56:25.321Z,2.1
2022-12-06T10:57:34.984Z,1.8
2022-12-06T10:58:43.657Z,1.9
2022-12-06T10:59:53.320Z,1.7
2022-12-06T11:01:03.048Z,1.8
2022-12-06T11:02:10.650Z,1.6
2022-12-06T11:03:20.329Z,1.2
2022-12-06T11:04:29.015Z,1.5
2022-12-06T11:05:36.722Z,1.8
2022-12-06T11:06:50.172Z,1.6
2022-12-06T11:07:55.097Z,1.6
2022-12-06T11:09:03.688Z,1.5
2022-12-06T11:10:13.380Z,1.4
2022-12-06T11:11:21.078Z,1.5
2022-12-06T11:12:31.588Z,1.6
2022-12-06T11:13:39.357Z,1.5
2022-12-06T11:14:47.019Z,1.2
2022-12-06T11:15:56.810Z,1.6
2022-12-06T11:17:04.392Z,1.5
2022-12-06T11:18:13.043Z,1.9
2022-12-06T11:19:22.704Z,1.6
2022-12-06T11:20:32.373Z,1.5
2022-12-06T11:21:42.086Z,1.4
2022-12-06T11:22:51.714Z,1.6
2022-12-06T11:24:00.383Z,1.9
2022-12-06T11:25:10.046Z,1.6
2022-12-06T11:26:18.716Z,1.4
2022-12-06T11:27:27.414Z,1.8
2022-12-06T11:28:37.077Z,1.7
2022-12-06T11:29:45.724Z,1.3
2022-12-06T11:30:55.394Z,1.3
2022-12-06T11:32:04.092Z,1.8
2022-12-06T11:33:12.732Z,1.8
2022-12-06T11:34:22.429Z,1.7
2022-12-06T11:35:30.151Z,1.4
2022-12-06T11:36:38.768Z,1.6
2022-12-06T11:37:48.438Z,1.3
2022-12-06T11:38:58.095Z,1.9
2022-12-06T11:40:07.820Z,1.6
2022-12-06T11:41:17.497Z,1.4
2022-12-06T11:42:26.176Z,2
2022-12-06T11:43:35.904Z,1.7
2022-12-06T11:44:49.368Z,1.4
2022-12-06T11:45:55.310Z,1.8
2022-12-06T11:47:04.056Z,1.7
2022-12-06T11:48:12.637Z,1.5
2022-12-06T11:49:22.333Z,2.2
2022-12-06T11:50:31.070Z,2.1
2022-12-06T11:51:40.748Z,1.8
2022-12-06T11:52:50.436Z,2.1
2022-12-06T11:53:59.168Z,2.2
2022-12-06T11:55:08.795Z,2
2022-12-06T11:56:17.486Z,2.8
2022-12-06T11:57:26.182Z,2.1
2022-12-06T11:58:35.849Z,2
2022-12-06T11:59:43.529Z,1.9
2022-12-06T12:00:53.195Z,2.2
2022-12-06T12:02:01.950Z,1.6
2022-12-06T12:03:09.636Z,1.3
2022-12-06T12:04:19.229Z,1.3
2022-12-06T12:05:27.895Z,1.3
2022-12-06T12:06:37.574Z,1.3
2022-12-06T12:07:47.445Z,1.4
2022-12-06T12:08:56.120Z,1.3
2022-12-06T12:10:05.812Z,1.5
2022-12-06T12:11:14.461Z,1.4
2022-12-06T12:12:23.184Z,1.4
2022-12-06T12:13:32.874Z,1.1
2022-12-06T12:14:44.145Z,1.5
2022-12-06T12:15:52.224Z,1.6
2022-12-06T12:17:02.013Z,1.8
2022-12-06T12:18:10.617Z,1.6
2022-12-06T12:19:20.390Z,1.6
2022-12-06T12:20:30.056Z,2
2022-12-06T12:21:38.739Z,1.7
2022-12-06T12:22:48.418Z,1.8
2022-12-06T12:23:57.102Z,2
2022-12-06T12:25:22.667Z,1.9
2022-12-06T12:26:17.447Z,2.2
2022-12-06T12:27:28.587Z,2.1
2022-12-06T12:28:37.762Z,2.1
2022-12-06T12:29:46.418Z,2.1
2022-12-06T12:30:56.190Z,2.3
2022-12-06T12:32:04.944Z,2.1
2022-12-06T12:33:13.524Z,2.4
2022-12-06T12:34:22.206Z,2.3
2022-12-06T12:35:31.882Z,1.7
2022-12-06T12:36:40.590Z,1.9
2022-12-06T12:37:50.287Z,1.7
2022-12-06T12:38:58.978Z,2
2022-12-06T12:40:10.735Z,2
2022-12-06T12:41:19.314Z,1.6
2022-12-06T12:42:27.977Z,1.6
2022-12-06T12:43:37.637Z,1.4
2022-12-06T12:44:47.288Z,1.7
2022-12-06T12:45:59.587Z,2
2022-12-06T12:47:06.605Z,1.5
2022-12-06T12:48:16.293Z,2
2022-12-06T12:49:23.995Z,1.8
2022-12-06T12:50:33.763Z,1.9
2022-12-06T12:51:46.488Z,1.5
2022-12-06T12:52:52.087Z,2
2022-12-06T12:54:01.790Z,1.9
2022-12-06T12:55:10.462Z,2.2
2022-12-06T12:56:20.146Z,2
2022-12-06T12:57:29.859Z,1.8
2022-12-06T12:58:39.507Z,1.6
2022-12-06T12:59:49.191Z,1.9
2022-12-06T13:00:57.991Z,2
2022-12-06T13:02:06.605Z,1.9
2022-12-06T13:03:42.665Z,1.7
2022-12-06T13:04:24.809Z,2
2022-12-06T13:05:35.374Z,1.6
2022-12-06T13:06:43.125Z,1.9
2022-12-06T13:07:51.851Z,1.5
2022-12-06T13:09:01.458Z,1.5
2022-12-06T13:10:10.156Z,1.7
2022-12-06T13:11:19.890Z,1.5
2022-12-06T13:12:29.566Z,1.4
2022-12-06T13:13:38.266Z,1.7
2022-12-06T13:14:47.900Z,1.5
2022-12-06T13:15:56.559Z,1.5
2022-12-06T13:17:05.355Z,2.2
2022-12-06T13:18:14.949Z,1.7
2022-12-06T13:19:23.616Z,2.1
2022-12-06T13:20:32.286Z,1.7
2022-12-06T13:21:41.953Z,1.6
2022-12-06T13:22:50.659Z,2.1
2022-12-06T13:24:00.338Z,2
2022-12-06T13:25:10.019Z,1.6
2022-12-06T13:26:17.674Z,1.9
2022-12-06T13:27:27.406Z,1.9
2022-12-06T13:28:37.146Z,1.9
2022-12-06T13:29:45.853Z,1.7
2022-12-06T13:30:55.594Z,1.9
2022-12-06T13:32:03.191Z,1.9
2022-12-06T13:33:16.400Z,1.6
2022-12-06T13:34:22.561Z,1.8
2022-12-06T13:35:32.218Z,1.5
2022-12-06T13:36:41.879Z,1.9
2022-12-06T13:37:50.552Z,1.9
2022-12-06T13:38:59.221Z,1.5
2022-12-06T13:40:08.931Z,1.8
2022-12-06T13:41:16.591Z,2
2022-12-06T13:42:26.278Z,1.7
2022-12-06T13:43:39.657Z,1.9
2022-12-06T13:44:46.620Z,1.7
2022-12-06T13:45:55.361Z,1.7
2022-12-06T13:47:04.012Z,1.7
2022-12-06T13:48:13.673Z,2.4
2022-12-06T13:49:22.326Z,1.8
2022-12-06T13:50:31.010Z,1.4
2022-12-06T13:51:40.748Z,2
2022-12-06T13:52:49.431Z,1.7
2022-12-06T13:53:59.101Z,2
2022-12-06T13:55:11.761Z,1.8
2022-12-06T13:56:19.435Z,1.9
2022-12-06T13:57:29.149Z,2
2022-12-06T13:58:38.816Z,1.8
2022-12-06T13:59:47.490Z,1.9
2022-12-06T14:00:57.282Z,1.6
2022-12-06T14:02:05.997Z,1.9
2022-12-06T14:03:15.526Z,2.5
2022-12-06T14:05:32.813Z,1.8
2022-12-06T14:06:42.492Z,1.8
2022-12-06T14:07:50.249Z,1.6
2022-12-06T14:08:57.859Z,1.6
2022-12-06T14:10:07.547Z,1.8
2022-12-06T14:11:17.243Z,2
2022-12-06T14:12:26.993Z,1.9
2022-12-06T14:13:35.662Z,1.5
2022-12-06T14:14:43.397Z,1.6
2022-12-06T14:15:53.069Z,1.8
2022-12-06T14:17:00.849Z,1.7
2022-12-06T14:18:12.995Z,1.6
2022-12-06T14:19:20.055Z,1.7
2022-12-06T14:20:27.743Z,1.8
2022-12-06T14:21:37.421Z,1.9
2022-12-06T14:22:47.097Z,1.8
2022-12-06T14:23:54.762Z,1.4
2022-12-06T14:25:04.446Z,1.8
2022-12-06T14:26:12.123Z,1.8
2022-12-06T14:27:21.823Z,1.8
2022-12-06T14:28:31.575Z,1.8
2022-12-06T14:29:40.255Z,1.4
2022-12-06T14:30:49.980Z,1.5
2022-12-06T14:31:58.656Z,2.1
2022-12-06T14:33:06.325Z,2.3
2022-12-06T14:34:15.993Z,1.6
2022-12-06T14:35:23.665Z,1.7
2022-12-06T14:36:32.368Z,1.8
2022-12-06T14:37:42.066Z,1.8
2022-12-06T14:38:49.740Z,2
2022-12-06T14:40:11.591Z,1.5
2022-12-06T14:41:09.105Z,2
2022-12-06T14:42:17.771Z,1.8
2022-12-06T14:43:27.457Z,1.6
2022-12-06T14:44:36.178Z,1.7
2022-12-06T14:45:44.857Z,1.8
2022-12-06T14:46:54.540Z,2.4
2022-12-06T14:48:02.338Z,1.9
2022-12-06T14:49:12.140Z,1.9
2022-12-06T14:50:20.752Z,1.7
2022-12-06T14:51:29.404Z,1.6
2022-12-06T14:52:39.154Z,1.7
2022-12-06T14:53:47.835Z,1.6
2022-12-06T14:54:56.559Z,1.3
2022-12-06T14:56:05.271Z,1.6
2022-12-06T14:57:12.990Z,1.8
2022-12-06T14:58:22.686Z,1.5
2022-12-06T15:00:13.343Z,1.5
2022-12-06T15:00:42.184Z,1.7
2022-12-06T15:01:51.856Z,1.2
2022-12-06T15:03:00.574Z,1.6
2022-12-06T15:04:09.315Z,1.4
2022-12-06T15:05:18.931Z,1.4
2022-12-06T15:06:27.588Z,1.6
2022-12-06T15:07:37.311Z,1.8
2022-12-06T15:08:50.525Z,1.5
2022-12-06T15:09:56.623Z,1.8
2022-12-06T15:11:06.300Z,1.6
2022-12-06T15:12:15.993Z,1.1
2022-12-06T15:13:25.673Z,1.7
2022-12-06T15:14:35.344Z,1.6
2022-12-06T15:15:44.071Z,1.6
2022-12-06T15:16:52.687Z,1.6
2022-12-06T15:18:02.420Z,1.5
2022-12-06T15:19:10.095Z,1.4
2022-12-06T15:20:19.773Z,1.4
2022-12-06T15:21:28.487Z,1.5
2022-12-06T15:22:37.171Z,1.2
2022-12-06T15:23:46.860Z,1.5
2022-12-06T15:24:54.555Z,1.8
2022-12-06T15:26:04.228Z,1.7
2022-12-06T15:27:12.923Z,1.5
2022-12-06T15:28:21.698Z,1.9
2022-12-06T15:29:31.291Z,1.4
2022-12-06T15:30:40.018Z,1.5
2022-12-06T15:31:48.693Z,1.9
2022-12-06T15:32:58.394Z,1.7
2022-12-06T15:34:07.061Z,1.9
2022-12-06T15:35:16.762Z,1.4
2022-12-06T15:36:25.470Z,1.4
2022-12-06T15:37:39.885Z,1.5
2022-12-06T15:38:44.788Z,1.6
2022-12-06T15:39:54.480Z,1.6
2022-12-06T15:41:04.174Z,1.8
2022-12-06T15:42:12.842Z,1.7
2022-12-06T15:43:21.531Z,1.9
2022-12-06T15:44:31.186Z,2
2022-12-06T15:45:39.854Z,2
2022-12-06T15:46:49.648Z,1.5
2022-12-06T15:47:58.232Z,1.4
2022-12-06T15:49:06.921Z,1.3
2022-12-06T15:50:16.621Z,1.8
2022-12-06T15:51:26.295Z,2
2022-12-06T15:52:34.987Z,1.6
2022-12-06T15:53:44.721Z,1.5
2022-12-06T15:54:52.355Z,1.3
2022-12-06T15:56:02.055Z,1.5
2022-12-06T15:57:11.726Z,1.6
2022-12-06T15:58:21.432Z,1